createdAt,value
2023-04-15T00:01:55.034Z,99377.94
2023-04-15T00:04:57.602Z,99398.19
2023-04-15T00:08:01.498Z,99392.25
2023-04-15T00:11:06.051Z,99391.22
2023-04-15T00:14:08.651Z,99390.34
2023-04-15T00:17:11.028Z,99393.06
2023-04-15T00:20:13.605Z,99385.47
2023-04-15T00:23:16.106Z,99390.00
2023-04-15T00:26:20.023Z,99386.28
2023-04-15T00:29:25.332Z,99389.00
2023-04-15T00:32:28.148Z,99385.50
2023-04-15T00:35:32.870Z,99384.91
2023-04-15T00:38:36.765Z,99386.75
2023-04-15T00:41:39.826Z,99384.94
2023-04-15T00:44:42.854Z,99377.94
2023-04-15T00:47:46.141Z,99381.44
2023-04-15T00:50:48.615Z,99378.91
2023-04-15T00:53:52.163Z,99383.22
2023-04-15T00:56:54.901Z,99377.25
2023-04-15T00:59:57.921Z,99378.06
2023-04-15T01:03:00.774Z,99378.31
2023-04-15T01:06:04.212Z,99379.09
2023-04-15T01:09:07.026Z,99374.84
2023-04-15T01:12:13.061Z,99373.94
2023-04-15T01:15:16.310Z,99367.53
2023-04-15T01:18:19.497Z,99373.00
2023-04-15T01:21:22.156Z,99368.63
2023-04-15T01:24:27.245Z,99374.69
2023-04-15T01:27:31.409Z,99373.03
2023-04-15T01:30:37.128Z,99376.63
2023-04-15T01:33:41.141Z,99372.31
2023-04-15T01:36:44.102Z,99375.69
2023-04-15T01:39:46.586Z,99383.72
2023-04-15T01:42:49.377Z,99375.97
2023-04-15T01:45:51.898Z,99382.13
2023-04-15T01:48:54.673Z,99376.22
2023-04-15T01:51:57.484Z,99370.13
2023-04-15T01:55:00.006Z,99370.09
2023-04-15T01:58:02.688Z,99381.38
2023-04-15T02:01:05.243Z,99384.03
2023-04-15T02:04:08.301Z,99383.09
2023-04-15T02:07:11.592Z,99383.22
2023-04-15T02:10:15.231Z,99387.75
2023-04-15T02:13:18.057Z,99381.69
2023-04-15T02:16:21.660Z,99387.50
2023-04-15T02:19:24.675Z,99393.47
2023-04-15T02:22:28.099Z,99387.56
2023-04-15T02:25:30.996Z,99397.22
2023-04-15T02:28:33.977Z,99402.06
2023-04-15T02:31:38.242Z,99402.25
2023-04-15T02:34:42.738Z,99411.50
2023-04-15T02:37:46.490Z,99406.44
2023-04-15T02:40:50.519Z,99393.56
2023-04-15T02:43:53.714Z,99399.78
2023-04-15T02:46:57.335Z,99394.44
2023-04-15T02:50:01.865Z,99393.81
2023-04-15T02:53:06.052Z,99391.13
2023-04-15T02:56:08.912Z,99396.28
2023-04-15T02:59:13.098Z,99393.84
2023-04-15T03:02:16.276Z,99399.19
2023-04-15T03:05:18.859Z,99392.59
2023-04-15T03:08:25.818Z,99382.25
2023-04-15T03:11:29.555Z,99376.22
2023-04-15T03:14:32.958Z,99390.03
2023-04-15T03:17:35.859Z,99375.34
2023-04-15T03:20:38.851Z,99385.00
2023-04-15T03:23:41.673Z,99370.25
2023-04-15T03:26:44.934Z,99376.50
2023-04-15T03:29:51.948Z,99382.63
2023-04-15T03:32:56.483Z,99380.53
2023-04-15T03:35:59.034Z,99385.66
2023-04-15T03:39:04.447Z,99395.16
2023-04-15T03:42:07.718Z,99393.56
2023-04-15T03:45:11.045Z,99385.91
2023-04-15T03:48:17.871Z,99378.69
2023-04-15T03:51:22.335Z,99383.09
2023-04-15T03:54:25.841Z,99381.25
2023-04-15T03:57:28.303Z,99399.41
2023-04-15T04:00:30.782Z,99381.28
2023-04-15T04:03:33.837Z,99386.44
2023-04-15T04:06:36.704Z,99385.56
2023-04-15T04:09:41.749Z,99377.75
2023-04-15T04:12:44.244Z,99381.34
2023-04-15T04:15:46.809Z,99381.50
2023-04-15T04:18:50.061Z,99380.63
2023-04-15T04:21:56.733Z,99378.19
2023-04-15T04:25:11.032Z,99386.75
2023-04-15T04:28:17.095Z,99379.06
2023-04-15T04:31:20.250Z,99387.88
2023-04-15T04:34:23.428Z,99384.59
2023-04-15T04:37:26.173Z,99384.72
2023-04-15T04:40:29.053Z,99382.72
2023-04-15T04:43:32.014Z,99377.94
2023-04-15T04:46:34.580Z,99379.78
2023-04-15T04:49:38.230Z,99379.84
2023-04-15T04:52:42.031Z,99388.41
2023-04-15T04:55:44.588Z,99388.50
2023-04-15T04:58:48.119Z,99380.06
2023-04-15T05:01:50.955Z,99385.56
2023-04-15T05:04:54.892Z,99383.09
2023-04-15T05:07:58.462Z,99389.69
2023-04-15T05:11:01.992Z,99390.63
2023-04-15T05:14:05.418Z,99393.63
2023-04-15T05:17:09.129Z,99392.78
2023-04-15T05:20:12.526Z,99395.38
2023-04-15T05:23:15.499Z,99401.91
2023-04-15T05:26:18.847Z,99396.44
2023-04-15T05:29:22.340Z,99398.34
2023-04-15T05:32:25.263Z,99396.56
2023-04-15T05:35:28.020Z,99403.88
2023-04-15T05:38:31.226Z,99400.13
2023-04-15T05:41:34.791Z,99408.91
2023-04-15T05:44:37.614Z,99406.44
2023-04-15T05:47:41.124Z,99401.47
2023-04-15T05:50:44.061Z,99405.09
2023-04-15T05:53:46.838Z,99409.78
2023-04-15T05:56:50.796Z,99411.78
2023-04-15T05:59:53.755Z,99409.50
2023-04-15T06:02:58.366Z,99414.91
2023-04-15T06:06:02.772Z,99421.19
2023-04-15T06:09:05.689Z,99415.25
2023-04-15T06:12:12.472Z,99416.41
2023-04-15T06:15:16.010Z,99416.16
2023-04-15T06:18:18.550Z,99418.03
2023-04-15T06:21:21.265Z,99419.22
2023-04-15T06:24:23.912Z,99421.81
2023-04-15T06:27:26.892Z,99430.16
2023-04-15T06:30:30.211Z,99431.34
2023-04-15T06:33:34.095Z,99429.97
2023-04-15T06:36:36.849Z,99437.19
2023-04-15T06:39:40.722Z,99433.13
2023-04-15T06:42:44.400Z,99441.94
2023-04-15T06:45:47.794Z,99447.38
2023-04-15T06:48:50.473Z,99444.78
2023-04-15T06:51:54.546Z,99452.59
2023-04-15T06:54:59.992Z,99450.53
2023-04-15T06:58:03.183Z,99451.22
2023-04-15T07:01:06.158Z,99455.63
2023-04-15T07:04:08.950Z,99451.28
2023-04-15T07:07:11.701Z,99455.75
2023-04-15T07:10:15.981Z,99449.78
2023-04-15T07:13:20.220Z,99450.19
2023-04-15T07:16:23.258Z,99459.03
2023-04-15T07:19:26.763Z,99458.50
2023-04-15T07:22:31.872Z,99461.19
2023-04-15T07:25:34.601Z,99470.72
2023-04-15T07:28:37.604Z,99460.34
2023-04-15T07:31:42.572Z,99453.09
2023-04-15T07:34:45.232Z,99462.25
2023-04-15T07:37:49.397Z,99457.09
2023-04-15T07:40:52.663Z,99466.72
2023-04-15T07:43:55.455Z,99467.59
2023-04-15T07:46:57.894Z,99466.81
2023-04-15T07:50:01.176Z,99465.94
2023-04-15T07:53:04.469Z,99464.41
2023-04-15T07:56:07.456Z,99467.09
2023-04-15T07:59:10.869Z,99464.44
2023-04-15T08:02:14.877Z,99467.81
2023-04-15T08:05:17.462Z,99464.97
2023-04-15T08:08:20.870Z,99469.50
2023-04-15T08:11:28.062Z,99460.84
2023-04-15T08:14:30.817Z,99462.66
2023-04-15T08:17:35.928Z,99462.69
2023-04-15T08:20:39.028Z,99468.81
2023-04-15T08:23:41.624Z,99471.44
2023-04-15T08:26:44.432Z,99471.41
2023-04-15T08:29:47.224Z,99477.44
2023-04-15T08:32:51.323Z,99484.34
2023-04-15T08:35:54.242Z,99487.06
2023-04-15T08:38:56.747Z,99476.66
2023-04-15T08:42:03.606Z,99487.97
2023-04-15T08:45:06.577Z,99482.59
2023-04-15T08:48:09.682Z,99483.56
2023-04-15T08:51:16.295Z,99489.59
2023-04-15T08:54:19.938Z,99490.69
2023-04-15T08:57:28.073Z,99494.06
2023-04-15T09:00:30.821Z,99503.66
2023-04-15T09:03:33.805Z,99503.59
2023-04-15T09:06:36.633Z,99506.47
2023-04-15T09:09:40.317Z,99496.81
2023-04-15T09:12:42.881Z,99492.47
2023-04-15T09:15:45.798Z,99490.72
2023-04-15T09:18:48.790Z,99502.97
2023-04-15T09:21:59.813Z,99498.59
2023-04-15T09:25:02.268Z,99506.47
2023-04-15T09:28:04.804Z,99498.56
2023-04-15T09:31:08.465Z,99499.47
2023-04-15T09:34:12.112Z,99493.31
2023-04-15T09:37:28.981Z,99492.34
2023-04-15T09:40:41.964Z,99498.56
2023-04-15T09:43:45.226Z,99506.50
2023-04-15T09:46:47.956Z,99499.47
2023-04-15T09:50:00.496Z,99495.97
2023-04-15T09:53:04.373Z,99494.22
2023-04-15T09:56:09.076Z,99504.72
2023-04-15T09:59:11.566Z,99500.31
2023-04-15T10:02:14.584Z,99505.59
2023-04-15T10:05:18.052Z,99495.09
2023-04-15T10:08:21.924Z,99496.81
2023-04-15T10:11:24.776Z,99495.03
2023-04-15T10:14:27.396Z,99512.59
2023-04-15T10:17:31.812Z,99514.34
2023-04-15T10:20:34.382Z,99526.63
2023-04-15T10:23:36.852Z,99526.66
2023-04-15T10:26:39.352Z,99529.25
2023-04-15T10:29:41.801Z,99524.88
2023-04-15T10:32:44.774Z,99531.00
2023-04-15T10:35:47.679Z,99507.34
2023-04-15T10:38:50.200Z,99510.81
2023-04-15T10:42:27.502Z,99512.56
2023-04-15T10:45:34.794Z,99517.84
2023-04-15T10:48:37.338Z,99515.25
2023-04-15T10:51:42.276Z,99515.13
2023-04-15T10:54:44.928Z,99521.22
2023-04-15T10:57:52.684Z,99534.53
2023-04-15T11:00:55.537Z,99548.47
2023-04-15T11:03:58.167Z,99541.22
2023-04-15T11:07:07.239Z,99549.09
2023-04-15T11:10:31.869Z,99548.19
2023-04-15T11:13:59.791Z,99558.69
2023-04-15T11:17:11.151Z,99556.06
2023-04-15T11:20:27.185Z,99552.63
2023-04-15T11:23:40.815Z,99552.69
2023-04-15T11:26:43.303Z,99546.66
2023-04-15T11:29:45.690Z,99545.03
2023-04-15T11:32:50.251Z,99542.41
2023-04-15T11:35:54.349Z,99546.75
2023-04-15T11:38:57.929Z,99549.41
2023-04-15T11:42:00.580Z,99544.16
2023-04-15T11:45:13.569Z,99553.78
2023-04-15T11:48:16.483Z,99552.06
2023-04-15T11:51:21.927Z,99548.53
2023-04-15T11:54:30.896Z,99553.78
2023-04-15T11:57:33.377Z,99547.66
2023-04-15T12:00:35.960Z,99555.53
2023-04-15T12:03:40.314Z,99559.94
2023-04-15T12:06:43.145Z,99557.25
2023-04-15T12:09:45.864Z,99559.91
2023-04-15T12:12:52.741Z,99557.25
2023-04-15T12:15:56.175Z,99552.91
2023-04-15T12:19:01.080Z,99556.13
2023-04-15T12:22:12.264Z,99555.34
2023-04-15T12:25:14.944Z,99551.16
2023-04-15T12:28:17.577Z,99559.03
2023-04-15T12:31:20.549Z,99559.81
2023-04-15T12:34:32.384Z,99566.66
2023-04-15T12:37:34.777Z,99567.59
2023-04-15T12:40:37.158Z,99569.41
2023-04-15T12:43:40.747Z,99572.91
2023-04-15T12:46:43.503Z,99565.13
2023-04-15T12:49:47.209Z,99570.41
2023-04-15T12:52:49.950Z,99572.16
2023-04-15T12:55:52.728Z,99569.56
2023-04-15T12:58:55.266Z,99577.38
2023-04-15T13:01:58.605Z,99579.09
2023-04-15T13:05:01.394Z,99579.06
2023-04-15T13:08:05.352Z,99585.22
2023-04-15T13:11:07.795Z,99575.66
2023-04-15T13:14:11.944Z,99579.94
2023-04-15T13:17:14.547Z,99579.97
2023-04-15T13:20:17.584Z,99585.25
2023-04-15T13:23:20.307Z,99591.31
2023-04-15T13:26:23.978Z,99585.19
2023-04-15T13:29:27.024Z,99588.75
2023-04-15T13:32:29.466Z,99587.81
2023-04-15T13:35:32.713Z,99595.72
2023-04-15T13:38:35.837Z,99598.34
2023-04-15T13:41:38.206Z,99597.19
2023-04-15T13:44:40.808Z,99592.84
2023-04-15T13:47:44.227Z,99604.91
2023-04-15T13:50:47.033Z,99601.44
2023-04-15T13:53:50.141Z,99596.50
2023-04-15T13:56:52.568Z,99597.31
2023-04-15T13:59:55.663Z,99605.19
2023-04-15T14:02:58.461Z,99601.53
2023-04-15T14:06:01.217Z,99608.50
2023-04-15T14:09:04.304Z,99605.91
2023-04-15T14:12:06.946Z,99618.22
2023-04-15T14:15:09.933Z,99605.97
2023-04-15T14:18:12.541Z,99606.88
2023-04-15T14:21:15.068Z,99615.34
2023-04-15T14:24:17.931Z,99614.47
2023-04-15T14:27:20.738Z,99627.75
2023-04-15T14:30:23.163Z,99625.94
2023-04-15T14:33:26.459Z,99627.72
2023-04-15T14:36:29.586Z,99631.19
2023-04-15T14:39:33.483Z,99633.06
2023-04-15T14:42:36.800Z,99630.50
2023-04-15T14:45:42.170Z,99627.88
2023-04-15T14:48:46.960Z,99631.41
2023-04-15T14:51:49.562Z,99638.53
2023-04-15T14:54:52.367Z,99637.69
2023-04-15T14:57:55.064Z,99643.88
2023-04-15T15:00:58.527Z,99641.97
2023-04-15T15:04:01.398Z,99640.34
2023-04-15T15:07:04.233Z,99642.16
2023-04-15T15:10:07.279Z,99645.59
2023-04-15T15:13:10.774Z,99641.22
2023-04-15T15:16:14.649Z,99654.34
2023-04-15T15:19:17.222Z,99659.47
2023-04-15T15:22:21.338Z,99665.22
2023-04-15T15:25:23.933Z,99664.97
2023-04-15T15:28:27.364Z,99661.38
2023-04-15T15:31:29.910Z,99661.50
2023-04-15T15:34:32.473Z,99664.22
2023-04-15T15:37:35.701Z,99672.84
2023-04-15T15:40:38.017Z,99687.59
2023-04-15T15:43:40.450Z,99685.69
2023-04-15T15:46:42.873Z,99686.66
2023-04-15T15:49:46.612Z,99694.28
2023-04-15T15:52:50.161Z,99696.97
2023-04-15T15:55:53.987Z,99700.56
2023-04-15T15:58:56.710Z,99711.94
2023-04-15T16:02:00.405Z,99720.56
2023-04-15T16:05:03.156Z,99723.31
2023-04-15T16:08:06.248Z,99717.94
2023-04-15T16:11:08.774Z,99719.53
2023-04-15T16:14:11.709Z,99712.38
2023-04-15T16:17:14.190Z,99715.75
2023-04-15T16:20:16.924Z,99725.28
2023-04-15T16:23:20.279Z,99724.50
2023-04-15T16:26:23.474Z,99717.56
2023-04-15T16:29:26.306Z,99717.72
2023-04-15T16:32:28.868Z,99729.09
2023-04-15T16:35:34.475Z,99726.94
2023-04-15T16:38:37.306Z,99716.41
2023-04-15T16:41:39.862Z,99710.81
2023-04-15T16:44:42.374Z,99717.88
2023-04-15T16:47:44.990Z,99731.66
2023-04-15T16:50:48.040Z,99734.19
2023-04-15T16:53:50.892Z,99732.44
2023-04-15T16:56:53.460Z,99750.63
2023-04-15T16:59:56.277Z,99737.53
2023-04-15T17:03:00.335Z,99749.94
2023-04-15T17:06:02.966Z,99748.28
2023-04-15T17:09:06.695Z,99762.13
2023-04-15T17:12:09.607Z,99772.50
2023-04-15T17:15:12.328Z,99773.41
2023-04-15T17:18:14.977Z,99776.69
2023-04-15T17:21:17.984Z,99784.59
2023-04-15T17:24:20.560Z,99774.25
2023-04-15T17:27:24.814Z,99781.72
2023-04-15T17:30:27.710Z,99791.94
2023-04-15T17:33:56.295Z,99797.34
2023-04-15T17:36:53.817Z,99793.00
2023-04-15T17:39:57.248Z,99789.69
2023-04-15T17:43:00.217Z,99798.47
2023-04-15T17:46:03.253Z,99805.22
2023-04-15T17:49:06.839Z,99813.06
2023-04-15T17:52:10.001Z,99798.44
2023-04-15T17:55:13.032Z,99808.56
2023-04-15T17:58:15.606Z,99824.97
2023-04-15T18:01:18.197Z,99819.41
2023-04-15T18:04:23.243Z,99822.94
2023-04-15T18:07:27.676Z,99833.97
2023-04-15T18:10:30.302Z,99836.59
2023-04-15T18:13:32.965Z,99840.75
2023-04-15T18:16:35.752Z,99838.25
2023-04-15T18:19:38.559Z,99841.72
2023-04-15T18:22:41.428Z,99849.69
2023-04-15T18:25:45.285Z,99853.31
2023-04-15T18:28:47.750Z,99858.56
2023-04-15T18:31:51.473Z,99866.59
2023-04-15T18:34:55.633Z,99868.06
2023-04-15T18:38:01.194Z,99868.59
2023-04-15T18:41:05.508Z,99880.59
2023-04-15T18:44:08.173Z,99892.75
2023-04-15T18:47:10.682Z,99893.53
2023-04-15T18:50:13.588Z,99902.22
2023-04-15T18:53:16.896Z,99904.06
2023-04-15T18:56:19.166Z,99912.88
2023-04-15T18:59:29.686Z,99919.03
2023-04-15T19:02:33.258Z,99917.34
2023-04-15T19:05:36.445Z,99919.47
2023-04-15T19:08:39.232Z,99923.66
2023-04-15T19:11:43.796Z,99933.94
2023-04-15T19:14:46.815Z,99934.69
2023-04-15T19:17:49.525Z,99931.25
2023-04-15T19:20:52.921Z,99946.16
2023-04-15T19:23:56.606Z,99943.59
2023-04-15T19:26:59.333Z,99947.19
2023-04-15T19:30:03.528Z,99950.69
2023-04-15T19:33:06.269Z,99955.69
2023-04-15T19:36:08.766Z,99955.69
2023-04-15T19:39:11.802Z,99955.63
2023-04-15T19:42:14.612Z,99963.28
2023-04-15T19:45:17.234Z,99968.50
2023-04-15T19:48:20.436Z,99970.41
2023-04-15T19:51:23.986Z,99972.09
2023-04-15T19:54:27.117Z,99978.66
2023-04-15T19:57:29.764Z,99967.97
2023-04-15T20:00:32.589Z,99974.81
2023-04-15T20:03:35.559Z,99984.66
2023-04-15T20:06:38.208Z,99990.63
2023-04-15T20:09:43.978Z,99984.66
2023-04-15T20:12:52.245Z,99985.66
2023-04-15T20:15:55.851Z,99990.09
2023-04-15T20:19:08.595Z,99984.88
2023-04-15T20:22:11.054Z,99983.19
2023-04-15T20:25:13.712Z,99982.44
2023-04-15T20:28:18.184Z,99977.31
2023-04-15T20:31:21.870Z,99975.63
2023-04-15T20:34:24.469Z,99981.56
2023-04-15T20:37:27.011Z,99996.34
2023-04-15T20:40:29.555Z,99996.25
2023-04-15T20:43:32.258Z,99992.84
2023-04-15T20:46:34.836Z,99997.91
2023-04-15T20:49:38.130Z,100000.53
2023-04-15T20:52:40.494Z,100006.47
2023-04-15T20:55:46.000Z,100007.84
2023-04-15T20:58:48.500Z,100002.03
2023-04-15T21:01:51.731Z,100011.59
2023-04-15T21:04:54.278Z,100016.81
2023-04-15T21:07:57.006Z,100027.22
2023-04-15T21:10:59.662Z,100029.81
2023-04-15T21:14:02.435Z,100031.47
2023-04-15T21:17:10.797Z,100039.09
2023-04-15T21:20:14.414Z,100035.56
2023-04-15T21:23:16.864Z,100038.13
2023-04-15T21:26:19.277Z,100045.38
2023-04-15T21:29:22.268Z,100050.53
2023-04-15T21:32:25.667Z,100059.38
2023-04-15T21:35:28.977Z,100047.19
2023-04-15T21:38:31.405Z,100060.94
2023-04-15T21:41:33.779Z,100053.97
2023-04-15T21:44:36.250Z,100057.31
2023-04-15T21:48:01.249Z,100057.00
2023-04-15T21:51:01.932Z,100051.84
2023-04-15T21:54:05.360Z,100052.69
2023-04-15T21:57:07.934Z,100068.06
2023-04-15T22:00:12.024Z,100065.28
2023-04-15T22:03:15.162Z,100062.47
2023-04-15T22:06:18.028Z,100068.44
2023-04-15T22:09:20.606Z,100064.19
2023-04-15T22:12:23.711Z,100066.78
2023-04-15T22:15:26.230Z,100066.44
2023-04-15T22:18:28.762Z,100069.06
2023-04-15T22:21:31.982Z,100065.63
2023-04-15T22:24:39.841Z,100064.84
2023-04-15T22:27:43.684Z,100080.44
2023-04-15T22:30:46.587Z,100074.44
2023-04-15T22:33:49.513Z,100087.47
2023-04-15T22:36:52.301Z,100084.75
2023-04-15T22:39:54.692Z,100082.06
2023-04-15T22:42:57.159Z,100077.69
2023-04-15T22:46:00.925Z,100072.31
2023-04-15T22:49:06.289Z,100074.94
2023-04-15T22:52:14.428Z,100086.25
2023-04-15T22:55:22.736Z,100081.88
2023-04-15T22:58:25.238Z,100084.47
2023-04-15T23:01:28.001Z,100085.38
2023-04-15T23:04:30.883Z,100080.13
2023-04-15T23:07:33.423Z,100081.84
2023-04-15T23:10:36.153Z,100082.56
2023-04-15T23:13:38.936Z,100085.25
2023-04-15T23:16:41.592Z,100071.31
2023-04-15T23:19:45.274Z,100076.19
2023-04-15T23:22:49.102Z,100072.97
2023-04-15T23:25:51.814Z,100080.84
2023-04-15T23:28:54.390Z,100079.19
2023-04-15T23:31:57.233Z,100095.00
2023-04-15T23:35:00.133Z,100100.13
2023-04-15T23:38:02.764Z,100095.91
2023-04-15T23:41:05.355Z,100105.56
2023-04-15T23:44:09.658Z,100098.28
2023-04-15T23:47:12.286Z,100107.69
2023-04-15T23:50:14.783Z,100108.34
2023-04-15T23:53:17.660Z,100112.91
2023-04-15T23:56:20.967Z,100114.44
2023-04-15T23:59:23.344Z,100116.03
